Time;durP1;ratioP1;P1;durP2;ratioP2;P2;SDS_P1;SDS_P2;PMS_P1;PMS_P2;Temp;Humidity;BMP_temperature;BMP_pressure;BME280_temperature;BME280_humidity;BME280_pressure;Samples;Min_cycle;Max_cycle;Signal;HPM_P1;HPM_P2
2023/01/27 00:02:23;;;;;;;;;;;23.00;99.90;;;;;;5012717;28;19916;-72
2023/01/27 00:04:50;;;;;;;;;;;22.90;99.90;;;;;;5027943;28;19948;-76
2023/01/27 00:07:16;;;;;;;;;;;23.10;99.90;;;;;;5012501;28;19909;-72
2023/01/27 00:09:44;;;;;;;;;;;23.20;99.90;;;;;;5011873;28;19937;-72
2023/01/27 00:15:03;;;;;;;;;;;23.20;99.90;;;;;;5012676;28;19921;-75
2023/01/27 00:17:30;;;;;;;;;;;23.30;99.90;;;;;;5012811;28;19918;-73
2023/01/27 00:19:57;;;;;;;;;;;23.40;99.90;;;;;;5012966;28;20276;-72
2023/01/27 00:25:08;;;;;;;;;;;23.50;99.90;;;;;;5013175;28;19932;-73
2023/01/27 00:27:35;;;;;;;;;;;23.50;99.90;;;;;;5011853;28;19942;-71
2023/01/27 00:30:04;;;;;;;;;;;23.60;99.90;;;;;;5011449;28;19978;-72
2023/01/27 00:35:16;;;;;;;;;;;23.80;99.90;;;;;;5012617;28;19921;-77
2023/01/27 00:37:43;;;;;;;;;;;24.10;99.90;;;;;;5012632;28;19939;-76
2023/01/27 00:40:10;;;;;;;;;;;24.10;99.90;;;;;;5011891;28;20300;-73
2023/01/27 00:42:37;;;;;;;;;;;24.10;99.90;;;;;;5012598;28;19916;-76
2023/01/27 00:47:49;;;;;;;;;;;23.90;99.90;;;;;;5012577;28;19916;-76
2023/01/27 00:50:16;;;;;;;;;;;23.90;99.90;;;;;;5012175;28;19940;-73
2023/01/27 00:52:43;;;;;;;;;;;23.90;99.90;;;;;;5011662;28;19916;-70
2023/01/27 00:55:10;;;;;;;;;;;24.00;99.90;;;;;;5011968;28;20383;-70
2023/01/27 00:57:37;;;;;;;;;;;24.20;99.90;;;;;;5012331;28;19914;-77
2023/01/27 01:00:04;;;;;;;;;;;24.40;99.90;;;;;;5012171;28;19921;-73
2023/01/27 01:02:31;;;;;;;;;;;24.50;99.90;;;;;;5012172;28;19979;-75
2023/01/27 01:04:58;;;;;;;;;;;24.70;99.90;;;;;;5011788;28;19914;-75
2023/01/27 01:07:24;;;;;;;;;;;24.70;99.90;;;;;;5011419;28;20288;-74
2023/01/27 01:09:51;;;;;;;;;;;24.80;99.90;;;;;;5011855;28;19917;-77
2023/01/27 01:12:18;;;;;;;;;;;25.40;99.90;;;;;;5012375;28;19909;-76
2023/01/27 01:14:44;;;;;;;;;;;25.40;99.90;;;;;;5015890;28;19996;-77
2023/01/27 01:17:11;;;;;;;;;;;25.40;99.90;;;;;;5018790;28;20315;-76
2023/01/27 01:19:38;;;;;;;;;;;25.50;99.90;;;;;;5018764;28;19910;-77
2023/01/27 01:22:05;;;;;;;;;;;25.30;99.90;;;;;;5017908;28;19917;-68
2023/01/27 01:24:31;;;;;;;;;;;25.30;99.90;;;;;;5017936;28;20008;-76
2023/01/27 01:26:59;;;;;;;;;;;25.40;99.90;;;;;;5017981;28;19923;-73
2023/01/27 01:29:25;;;;;;;;;;;25.30;99.90;;;;;;5018410;28;19910;-75
2023/01/27 01:31:52;;;;;;;;;;;25.30;99.90;;;;;;5018670;28;19917;-73
2023/01/27 01:34:19;;;;;;;;;;;25.00;99.90;;;;;;5018266;28;19914;-78
2023/01/27 01:36:46;;;;;;;;;;;25.00;99.90;;;;;;5018389;28;20337;-74
2023/01/27 01:39:12;;;;;;;;;;;24.90;99.90;;;;;;5016765;28;19922;-76
2023/01/27 01:41:39;;;;;;;;;;;25.00;99.90;;;;;;5018011;28;19914;-72
2023/01/27 01:44:38;;;;;;;;;;;25.50;99.90;;;;;;5018095;28;19917;-77
2023/01/27 01:47:04;;;;;;;;;;;25.60;99.90;;;;;;4985340;28;19921;-74
2023/01/27 01:49:39;;;;;;;;;;;25.40;99.90;;;;;;5017039;28;20304;-77
2023/01/27 01:52:08;;;;;;;;;;;25.70;99.90;;;;;;5018400;28;19927;-77
2023/01/27 01:54:41;;;;;;;;;;;25.70;99.90;;;;;;5017837;28;19938;-74
2023/01/27 01:57:15;;;;;;;;;;;25.50;99.90;;;;;;5017511;28;19910;-74
2023/01/27 01:59:57;;;;;;;;;;;25.50;99.90;;;;;;5017658;28;20328;-77
2023/01/27 02:02:24;;;;;;;;;;;25.50;99.90;;;;;;5018235;28;19982;-77
2023/01/27 02:04:54;;;;;;;;;;;25.50;99.90;;;;;;5017850;28;19914;-76
2023/01/27 02:07:26;;;;;;;;;;;25.40;99.90;;;;;;5017890;28;20272;-74
2023/01/27 02:09:54;;;;;;;;;;;25.30;99.90;;;;;;5017976;28;19925;-72
2023/01/27 02:12:20;;;;;;;;;;;25.10;99.90;;;;;;5017995;28;19914;-76
2023/01/27 02:14:47;;;;;;;;;;;25.30;99.90;;;;;;5017892;28;20412;-75
2023/01/27 02:17:14;;;;;;;;;;;25.20;99.90;;;;;;5017990;28;19916;-74
2023/01/27 02:19:43;;;;;;;;;;;25.00;99.90;;;;;;5018233;28;19919;-72
2023/01/27 02:22:14;;;;;;;;;;;24.90;99.90;;;;;;5018182;28;20388;-76
2023/01/27 02:24:43;;;;;;;;;;;24.90;99.90;;;;;;5018020;28;19915;-77
2023/01/27 02:27:10;;;;;;;;;;;24.90;99.90;;;;;;5013817;28;19991;-74
2023/01/27 02:29:36;;;;;;;;;;;25.20;99.90;;;;;;5014608;28;19914;-74
2023/01/27 02:32:03;;;;;;;;;;;25.30;99.90;;;;;;5014763;28;19920;-74
2023/01/27 02:34:32;;;;;;;;;;;25.40;99.90;;;;;;5014287;28;19916;-77
2023/01/27 02:37:03;;;;;;;;;;;25.60;99.90;;;;;;5015000;28;19918;-73
2023/01/27 02:39:41;;;;;;;;;;;26.00;99.90;;;;;;5014294;28;20372;-77
2023/01/27 02:42:09;;;;;;;;;;;26.20;99.90;;;;;;5014554;28;19953;-77
2023/01/27 02:44:36;;;;;;;;;;;25.90;99.90;;;;;;5014004;28;20286;-74
2023/01/27 02:47:03;;;;;;;;;;;25.60;99.90;;;;;;5014469;28;19913;-75
2023/01/27 02:49:29;;;;;;;;;;;25.70;99.90;;;;;;5014353;28;19915;-77
2023/01/27 02:51:56;;;;;;;;;;;25.90;99.90;;;;;;5014441;28;20031;-76
2023/01/27 02:54:24;;;;;;;;;;;26.00;99.90;;;;;;5013847;28;19979;-77
2023/01/27 02:56:51;;;;;;;;;;;26.20;99.90;;;;;;5014210;28;19910;-68
2023/01/27 02:59:18;;;;;;;;;;;26.30;99.90;;;;;;5014096;28;19921;-75
2023/01/27 03:01:44;;;;;;;;;;;26.40;99.90;;;;;;5014208;28;19955;-74
2023/01/27 03:04:11;;;;;;;;;;;26.40;99.90;;;;;;5013860;28;19909;-76
2023/01/27 03:06:38;;;;;;;;;;;26.60;99.90;;;;;;5014134;28;19913;-75
2023/01/27 03:09:05;;;;;;;;;;;26.70;99.90;;;;;;5014180;28;19920;-70
2023/01/27 03:14:16;;;;;;;;;;;26.70;99.90;;;;;;5013787;28;19920;-77
2023/01/27 03:19:27;;;;;;;;;;;26.60;99.90;;;;;;5013748;28;19981;-73
2023/01/27 03:21:55;;;;;;;;;;;26.50;99.90;;;;;;5013773;28;20324;-78
2023/01/27 03:24:22;;;;;;;;;;;26.40;99.90;;;;;;5013380;28;19917;-70
2023/01/27 03:26:48;;;;;;;;;;;26.30;99.90;;;;;;5013861;28;19910;-78
2023/01/27 03:31:59;;;;;;;;;;;26.60;99.90;;;;;;5013604;28;19928;-76
2023/01/27 03:34:26;;;;;;;;;;;26.60;99.90;;;;;;5013318;28;20288;-77
2023/01/27 03:47:51;;;;;;;;;;;26.90;99.90;;;;;;5013550;28;20430;-75
2023/01/27 03:50:36;;;;;;;;;;;27.00;99.90;;;;;;5012639;28;19917;-67
2023/01/27 03:53:03;;;;;;;;;;;27.20;99.90;;;;;;5012402;28;19964;-67
2023/01/27 03:55:30;;;;;;;;;;;27.20;99.90;;;;;;5012777;28;19910;-67
2023/01/27 03:58:04;;;;;;;;;;;26.90;99.90;;;;;;5012657;28;20357;-75
2023/01/27 04:00:31;;;;;;;;;;;26.80;99.90;;;;;;5012831;28;19922;-71
2023/01/27 04:08:28;;;;;;;;;;;27.20;99.90;;;;;;5013261;28;19919;-74
2023/01/27 04:13:47;;;;;;;;;;;27.10;99.90;;;;;;4971714;28;19913;-65
2023/01/27 04:16:15;;;;;;;;;;;27.00;99.90;;;;;;5012592;28;19960;-77
2023/01/27 04:18:42;;;;;;;;;;;27.10;99.90;;;;;;5012524;28;19996;-73
2023/01/27 04:21:09;;;;;;;;;;;26.80;99.90;;;;;;5012698;28;20008;-74
2023/01/27 04:23:36;;;;;;;;;;;26.80;99.90;;;;;;5011953;28;19910;-72
2023/01/27 04:26:02;;;;;;;;;;;27.10;99.90;;;;;;5012548;28;20434;-66
2023/01/27 04:28:29;;;;;;;;;;;26.90;99.90;;;;;;5011856;28;19996;-74
2023/01/27 04:30:57;;;;;;;;;;;27.10;99.90;;;;;;5011849;28;19960;-70
2023/01/27 04:33:24;;;;;;;;;;;27.30;99.90;;;;;;5011759;28;20266;-69
2023/01/27 04:35:51;;;;;;;;;;;27.30;99.90;;;;;;5011022;28;19913;-67
2023/01/27 04:38:17;;;;;;;;;;;27.20;99.90;;;;;;5012338;28;19940;-67
2023/01/27 04:40:44;;;;;;;;;;;27.00;99.90;;;;;;5012091;28;20249;-71
2023/01/27 04:43:11;;;;;;;;;;;26.80;99.90;;;;;;5011461;28;19916;-72
2023/01/27 04:45:38;;;;;;;;;;;26.80;99.90;;;;;;5011457;28;19956;-76
2023/01/27 04:48:05;;;;;;;;;;;27.00;99.90;;;;;;5011847;28;19940;-77
2023/01/27 04:50:34;;;;;;;;;;;27.00;99.90;;;;;;5011725;28;19925;-73
2023/01/27 04:53:01;;;;;;;;;;;27.10;99.90;;;;;;5011755;28;19917;-70
2023/01/27 04:55:27;;;;;;;;;;;27.00;99.90;;;;;;5011931;28;20410;-74
2023/01/27 04:57:54;;;;;;;;;;;27.00;99.90;;;;;;5011971;28;19913;-72
2023/01/27 05:00:21;;;;;;;;;;;26.70;99.90;;;;;;5011313;28;19951;-75
2023/01/27 05:02:47;;;;;;;;;;;26.50;99.90;;;;;;5011354;28;19989;-77
2023/01/27 05:05:15;;;;;;;;;;;26.50;99.90;;;;;;5011619;28;20460;-76
2023/01/27 05:07:42;;;;;;;;;;;26.30;99.90;;;;;;5011815;28;20000;-77
2023/01/27 05:10:09;;;;;;;;;;;26.40;99.90;;;;;;5011526;28;20012;-77
2023/01/27 05:12:36;;;;;;;;;;;26.60;99.90;;;;;;5011217;28;19918;-75
2023/01/27 05:15:02;;;;;;;;;;;26.70;99.90;;;;;;5011059;28;19918;-76
2023/01/27 05:17:32;;;;;;;;;;;26.80;99.90;;;;;;5011351;28;19924;-78
2023/01/27 05:19:59;;;;;;;;;;;26.70;99.90;;;;;;5011501;28;19914;-66
2023/01/27 05:22:26;;;;;;;;;;;26.80;99.90;;;;;;5011584;28;19931;-68
2023/01/27 05:24:52;;;;;;;;;;;26.80;99.90;;;;;;5011377;28;19910;-68
2023/01/27 05:27:19;;;;;;;;;;;26.80;99.90;;;;;;5011366;28;19914;-73
2023/01/27 05:29:47;;;;;;;;;;;26.70;99.90;;;;;;4993246;28;19917;-70
2023/01/27 05:32:14;;;;;;;;;;;26.50;99.90;;;;;;5011862;28;19909;-71
2023/01/27 05:34:40;;;;;;;;;;;26.60;99.90;;;;;;5011437;28;19936;-66
2023/01/27 05:37:07;;;;;;;;;;;26.50;99.90;;;;;;5011974;28;19913;-71
2023/01/27 05:39:34;;;;;;;;;;;26.50;99.90;;;;;;5011534;28;19910;-65
2023/01/27 05:42:00;;;;;;;;;;;26.50;99.90;;;;;;5011546;28;19955;-70
2023/01/27 05:44:27;;;;;;;;;;;26.50;99.90;;;;;;5010238;28;20374;-66
2023/01/27 05:46:53;;;;;;;;;;;26.40;99.90;;;;;;5011763;28;19909;-69
2023/01/27 05:49:20;;;;;;;;;;;26.40;99.90;;;;;;5011334;28;19910;-66
2023/01/27 05:51:47;;;;;;;;;;;26.50;99.90;;;;;;5009558;28;19925;-66
2023/01/27 05:54:13;;;;;;;;;;;26.60;99.90;;;;;;5008328;28;19972;-66
2023/01/27 05:56:40;;;;;;;;;;;26.80;99.90;;;;;;5009503;28;20131;-70
2023/01/27 05:59:07;;;;;;;;;;;26.80;99.90;;;;;;5008325;28;19922;-74
2023/01/27 06:01:34;;;;;;;;;;;26.70;99.90;;;;;;5010464;28;19925;-66
2023/01/27 06:04:01;;;;;;;;;;;26.80;99.90;;;;;;5012405;28;19913;-66
2023/01/27 06:06:28;;;;;;;;;;;26.60;99.90;;;;;;5013121;28;19936;-71
2023/01/27 06:08:55;;;;;;;;;;;26.40;99.90;;;;;;5013233;28;19918;-68
2023/01/27 06:11:23;;;;;;;;;;;26.40;99.90;;;;;;5012651;28;20011;-66
2023/01/27 06:13:50;;;;;;;;;;;26.30;99.90;;;;;;5011847;28;19913;-72
2023/01/27 06:16:17;;;;;;;;;;;26.30;99.90;;;;;;5013097;28;19917;-68
2023/01/27 06:18:45;;;;;;;;;;;26.20;99.90;;;;;;5012525;28;20004;-73
2023/01/27 06:21:12;;;;;;;;;;;26.10;99.90;;;;;;5012989;28;20374;-76
2023/01/27 06:23:39;;;;;;;;;;;26.20;99.90;;;;;;5012587;28;19913;-76
2023/01/27 06:26:08;;;;;;;;;;;26.10;99.90;;;;;;5013055;28;19917;-73
2023/01/27 06:28:35;;;;;;;;;;;26.10;99.90;;;;;;5011979;28;19938;-74
2023/01/27 06:31:06;;;;;;;;;;;26.00;99.90;;;;;;5011951;28;20008;-69
2023/01/27 06:33:33;;;;;;;;;;;25.90;99.90;;;;;;5012049;28;19910;-71
2023/01/27 06:36:01;;;;;;;;;;;26.00;99.90;;;;;;5012523;28;19910;-75
2023/01/27 06:38:28;;;;;;;;;;;25.90;99.90;;;;;;5012649;28;19916;-76
2023/01/27 06:40:54;;;;;;;;;;;25.90;99.90;;;;;;5011422;28;19918;-75
2023/01/27 06:43:21;;;;;;;;;;;25.90;99.90;;;;;;5011475;28;19949;-69
2023/01/27 06:45:51;;;;;;;;;;;25.90;99.90;;;;;;5012504;28;19918;-72
2023/01/27 06:48:18;;;;;;;;;;;25.90;99.90;;;;;;5011463;28;19979;-66
2023/01/27 06:50:45;;;;;;;;;;;25.80;99.90;;;;;;5012149;28;20230;-70
2023/01/27 06:53:11;;;;;;;;;;;25.90;99.90;;;;;;5011956;28;20355;-70
2023/01/27 06:55:42;;;;;;;;;;;25.90;99.90;;;;;;5012009;28;19914;-67
2023/01/27 06:58:09;;;;;;;;;;;25.80;99.90;;;;;;5011678;28;19913;-71
2023/01/27 07:00:36;;;;;;;;;;;25.80;99.90;;;;;;5011924;28;19925;-74
2023/01/27 07:03:08;;;;;;;;;;;25.80;99.90;;;;;;5010073;28;20116;-70
2023/01/27 07:05:35;;;;;;;;;;;25.80;99.90;;;;;;5011801;28;19956;-69
2023/01/27 07:08:02;;;;;;;;;;;25.90;99.90;;;;;;5021044;28;19949;-71
2023/01/27 07:10:28;;;;;;;;;;;25.80;99.90;;;;;;5005111;28;20042;-66
2023/01/27 07:13:15;;;;;;;;;;;25.70;99.90;;;;;;5003487;28;19924;-75
2023/01/27 07:15:42;;;;;;;;;;;25.80;99.90;;;;;;5005255;28;20044;-71
2023/01/27 07:18:09;;;;;;;;;;;25.70;99.90;;;;;;5005029;28;19913;-68
2023/01/27 07:20:36;;;;;;;;;;;25.70;99.90;;;;;;5005038;28;19956;-67
2023/01/27 07:23:04;;;;;;;;;;;25.80;99.90;;;;;;5005114;28;19941;-74
2023/01/27 07:25:31;;;;;;;;;;;25.70;99.90;;;;;;5005556;28;19919;-69
2023/01/27 07:27:58;;;;;;;;;;;25.70;99.90;;;;;;5005043;28;19988;-74
2023/01/27 07:30:26;;;;;;;;;;;25.70;99.90;;;;;;5005493;28;19929;-67
2023/01/27 07:32:54;;;;;;;;;;;25.70;99.90;;;;;;5005333;28;19920;-67
2023/01/27 07:35:21;;;;;;;;;;;25.70;99.90;;;;;;5004723;28;19913;-75
2023/01/27 07:37:48;;;;;;;;;;;25.60;99.90;;;;;;5005022;28;19913;-71
2023/01/27 07:40:14;;;;;;;;;;;25.60;99.90;;;;;;5005086;28;19917;-68
2023/01/27 07:42:41;;;;;;;;;;;25.50;99.90;;;;;;5004162;28;20364;-74
2023/01/27 07:45:08;;;;;;;;;;;25.30;99.90;;;;;;5005374;28;20583;-69
2023/01/27 07:47:35;;;;;;;;;;;25.30;99.90;;;;;;5004628;28;19943;-71
2023/01/27 07:50:01;;;;;;;;;;;25.30;99.90;;;;;;5004585;28;19924;-69
2023/01/27 07:52:28;;;;;;;;;;;25.30;99.90;;;;;;5005200;28;19948;-66
2023/01/27 07:54:55;;;;;;;;;;;25.40;99.90;;;;;;5004603;28;20384;-66
2023/01/27 07:57:21;;;;;;;;;;;25.30;99.90;;;;;;5003795;28;19940;-78
2023/01/27 07:59:54;;;;;;;;;;;25.20;99.90;;;;;;5016189;28;20062;-71
2023/01/27 08:02:21;;;;;;;;;;;25.20;99.90;;;;;;4984158;28;19918;-66
2023/01/27 08:04:49;;;;;;;;;;;25.10;99.90;;;;;;4985024;28;19929;-71
2023/01/27 08:07:16;;;;;;;;;;;25.10;99.90;;;;;;4984871;28;19976;-69
2023/01/27 08:09:42;;;;;;;;;;;25.10;99.90;;;;;;4984530;28;19921;-70
2023/01/27 08:12:09;;;;;;;;;;;25.10;99.90;;;;;;4983690;28;19918;-75
2023/01/27 08:14:36;;;;;;;;;;;25.20;99.90;;;;;;4983568;28;19918;-73
2023/01/27 08:17:02;;;;;;;;;;;25.10;99.90;;;;;;4983733;28;19921;-67
2023/01/27 08:19:29;;;;;;;;;;;25.10;99.90;;;;;;4984405;28;20448;-72
2023/01/27 08:21:56;;;;;;;;;;;25.10;99.90;;;;;;4985431;28;19960;-72
2023/01/27 08:24:22;;;;;;;;;;;24.90;99.90;;;;;;4983747;28;19961;-67
2023/01/27 08:26:49;;;;;;;;;;;24.90;99.90;;;;;;4983695;28;20317;-70
2023/01/27 08:29:15;;;;;;;;;;;24.80;99.90;;;;;;4984013;28;20544;-74
2023/01/27 08:31:42;;;;;;;;;;;24.80;99.90;;;;;;4988496;28;20017;-70
2023/01/27 08:34:09;;;;;;;;;;;24.70;99.90;;;;;;4992560;28;20060;-71
2023/01/27 08:36:35;;;;;;;;;;;24.70;99.90;;;;;;5023991;28;19956;-67
2023/01/27 08:39:02;;;;;;;;;;;24.60;99.90;;;;;;4992687;28;19910;-67
2023/01/27 08:41:29;;;;;;;;;;;24.70;99.90;;;;;;4991226;28;19910;-65
2023/01/27 08:43:55;;;;;;;;;;;24.60;99.90;;;;;;4991368;28;19918;-67
2023/01/27 08:46:22;;;;;;;;;;;24.60;99.90;;;;;;4992489;28;20021;-66
2023/01/27 08:48:50;;;;;;;;;;;24.60;99.90;;;;;;4992483;28;19910;-69
2023/01/27 08:51:17;;;;;;;;;;;24.60;99.90;;;;;;4992107;28;19925;-68
2023/01/27 08:53:43;;;;;;;;;;;24.60;99.90;;;;;;4992147;28;20361;-69
2023/01/27 08:56:12;;;;;;;;;;;24.60;99.90;;;;;;4991629;28;19932;-67
2023/01/27 08:58:38;;;;;;;;;;;24.70;99.90;;;;;;4992289;28;19914;-68
2023/01/27 09:01:06;;;;;;;;;;;24.70;99.90;;;;;;5010057;28;20000;-76
2023/01/27 09:03:33;;;;;;;;;;;24.70;99.90;;;;;;5011475;28;19918;-69
2023/01/27 09:06:00;;;;;;;;;;;24.60;99.90;;;;;;5011816;28;19914;-69
2023/01/27 09:08:27;;;;;;;;;;;24.70;99.90;;;;;;5011792;28;19917;-68
2023/01/27 09:10:54;;;;;;;;;;;24.70;99.90;;;;;;5010557;28;19933;-68
2023/01/27 09:13:23;;;;;;;;;;;24.60;99.90;;;;;;5011127;28;19909;-71
2023/01/27 09:15:53;;;;;;;;;;;24.60;99.90;;;;;;5011687;28;20288;-68
2023/01/27 09:18:20;;;;;;;;;;;24.70;99.90;;;;;;5011628;28;20323;-70
2023/01/27 09:20:46;;;;;;;;;;;24.60;99.90;;;;;;5011631;28;19925;-70
2023/01/27 09:23:13;;;;;;;;;;;24.60;99.90;;;;;;5011155;28;19909;-76
2023/01/27 09:25:39;;;;;;;;;;;24.60;99.90;;;;;;5010752;28;19914;-68
2023/01/27 09:28:15;;;;;;;;;;;24.50;99.90;;;;;;5011805;28;20372;-71
2023/01/27 09:30:44;;;;;;;;;;;24.30;99.90;;;;;;5011749;28;19917;-68
2023/01/27 09:33:11;;;;;;;;;;;24.30;99.90;;;;;;5011648;28;19921;-66
2023/01/27 09:35:43;;;;;;;;;;;24.20;99.90;;;;;;5014084;28;20004;-74
2023/01/27 09:38:12;;;;;;;;;;;24.00;99.90;;;;;;5016162;28;20416;-67
2023/01/27 09:40:57;;;;;;;;;;;24.20;99.90;;;;;;5014766;28;20418;-75
2023/01/27 09:43:42;;;;;;;;;;;24.10;99.90;;;;;;5015462;28;20399;-71
2023/01/27 09:46:17;;;;;;;;;;;24.00;99.90;;;;;;5016038;28;19909;-75
2023/01/27 09:49:03;;;;;;;;;;;23.90;99.90;;;;;;5015608;28;20012;-68
2023/01/27 09:51:43;;;;;;;;;;;23.90;99.90;;;;;;5015550;28;19917;-72
2023/01/27 09:54:29;;;;;;;;;;;23.90;99.90;;;;;;5014758;28;19914;-66
2023/01/27 09:57:17;;;;;;;;;;;23.90;99.90;;;;;;5015497;28;19936;-69
2023/01/27 09:59:46;;;;;;;;;;;23.70;99.90;;;;;;5006485;28;19936;-74
2023/01/27 10:02:13;;;;;;;;;;;23.70;99.90;;;;;;5007176;28;20092;-69
2023/01/27 10:04:52;;;;;;;;;;;23.80;99.90;;;;;;5007338;28;20083;-74
2023/01/27 10:07:32;;;;;;;;;;;23.90;99.90;;;;;;5006602;28;20269;-77
2023/01/27 10:10:28;;;;;;;;;;;23.70;99.90;;;;;;5006418;28;20296;-66
2023/01/27 10:13:21;;;;;;;;;;;23.80;99.90;;;;;;4993499;28;19921;-72
2023/01/27 10:15:57;;;;;;;;;;;23.90;99.90;;;;;;5004013;28;20685;-67
2023/01/27 10:18:23;;;;;;;;;;;23.80;99.90;;;;;;5007261;28;19917;-66
2023/01/27 10:20:55;;;;;;;;;;;23.80;99.90;;;;;;5006943;28;20356;-81
2023/01/27 10:23:25;;;;;;;;;;;24.00;99.90;;;;;;5006536;28;19913;-75
2023/01/27 10:26:05;;;;;;;;;;;23.90;99.90;;;;;;5005195;28;19918;-69
2023/01/27 10:28:32;;;;;;;;;;;24.00;99.90;;;;;;5006167;28;20149;-67
2023/01/27 10:31:00;;;;;;;;;;;23.90;99.90;;;;;;5006795;28;19925;-70
2023/01/27 10:33:33;;;;;;;;;;;24.00;99.90;;;;;;5021210;28;19967;-77
2023/01/27 10:36:05;;;;;;;;;;;24.00;99.90;;;;;;5006687;28;19914;-76
2023/01/27 10:38:39;;;;;;;;;;;24.10;99.90;;;;;;5005781;28;19960;-72
2023/01/27 10:41:05;;;;;;;;;;;24.00;99.90;;;;;;5006542;28;20000;-70
2023/01/27 10:43:32;;;;;;;;;;;24.10;99.90;;;;;;5006439;28;20451;-76
2023/01/27 10:46:06;;;;;;;;;;;24.10;99.90;;;;;;5006319;28;19914;-74
2023/01/27 10:48:36;;;;;;;;;;;24.00;99.90;;;;;;5006275;28;19920;-75
2023/01/27 10:51:24;;;;;;;;;;;24.00;99.90;;;;;;5006029;28;19921;-68
2023/01/27 10:53:56;;;;;;;;;;;24.00;99.90;;;;;;5005570;28;19964;-70
2023/01/27 10:56:29;;;;;;;;;;;24.10;99.90;;;;;;5006191;28;19914;-79
2023/01/27 10:58:59;;;;;;;;;;;24.00;99.90;;;;;;5006111;28;20322;-77
2023/01/27 11:01:39;;;;;;;;;;;24.20;99.90;;;;;;5005991;28;19921;-67
2023/01/27 11:04:14;;;;;;;;;;;24.20;99.90;;;;;;5005509;28;19952;-74
2023/01/27 11:06:42;;;;;;;;;;;24.10;99.90;;;;;;5005967;28;19913;-78
2023/01/27 11:09:18;;;;;;;;;;;24.10;99.90;;;;;;5005113;28;19924;-72
2023/01/27 11:11:45;;;;;;;;;;;24.10;99.90;;;;;;5005817;28;19988;-75
2023/01/27 11:14:11;;;;;;;;;;;24.10;99.90;;;;;;5005524;28;19917;-66
2023/01/27 11:16:40;;;;;;;;;;;24.10;99.90;;;;;;5005950;28;20463;-75
2023/01/27 11:19:16;;;;;;;;;;;24.10;99.90;;;;;;5005843;28;20611;-70
2023/01/27 11:21:42;;;;;;;;;;;24.20;99.90;;;;;;5005708;28;19980;-77
2023/01/27 11:24:25;;;;;;;;;;;24.10;99.90;;;;;;5004502;28;19917;-81
2023/01/27 11:26:57;;;;;;;;;;;24.20;99.90;;;;;;5005490;28;20481;-82
2023/01/27 11:29:40;;;;;;;;;;;24.20;99.90;;;;;;5005294;28;19967;-78
2023/01/27 11:32:25;;;;;;;;;;;24.20;99.90;;;;;;5005109;28;19925;-76
2023/01/27 11:34:52;;;;;;;;;;;24.20;99.90;;;;;;5005689;28;19956;-77
2023/01/27 11:37:24;;;;;;;;;;;24.10;99.90;;;;;;5005539;28;19921;-81
2023/01/27 11:39:51;;;;;;;;;;;24.10;99.90;;;;;;5003228;28;20276;-76
2023/01/27 11:42:20;;;;;;;;;;;24.10;99.90;;;;;;5004748;28;19913;-75
2023/01/27 11:44:50;;;;;;;;;;;24.10;99.90;;;;;;5005274;28;19914;-66
2023/01/27 11:47:37;;;;;;;;;;;24.20;99.90;;;;;;5005266;28;19913;-78
2023/01/27 11:50:04;;;;;;;;;;;24.00;99.90;;;;;;5004243;28;20498;-76
2023/01/27 11:52:32;;;;;;;;;;;24.00;99.90;;;;;;5005321;28;20329;-75
2023/01/27 11:55:04;;;;;;;;;;;24.00;99.90;;;;;;5005274;28;20566;-75
2023/01/27 11:57:32;;;;;;;;;;;24.00;99.90;;;;;;5005160;28;20092;-77
2023/01/27 12:00:07;;;;;;;;;;;24.10;99.90;;;;;;5004513;28;20024;-78
2023/01/27 12:02:40;;;;;;;;;;;24.20;99.90;;;;;;5005041;28;19913;-79
2023/01/27 12:05:30;;;;;;;;;;;24.10;99.90;;;;;;5004421;28;19991;-75
2023/01/27 12:08:01;;;;;;;;;;;24.10;99.90;;;;;;4996670;28;19921;-78
2023/01/27 12:10:30;;;;;;;;;;;24.10;99.90;;;;;;5004324;28;20542;-78
2023/01/27 12:13:01;;;;;;;;;;;24.10;99.90;;;;;;5004620;28;20416;-79
2023/01/27 12:15:29;;;;;;;;;;;24.00;99.90;;;;;;5004864;28;19971;-76
2023/01/27 12:18:02;;;;;;;;;;;24.00;99.90;;;;;;5004750;28;19961;-78
2023/01/27 12:20:34;;;;;;;;;;;24.00;99.90;;;;;;5003936;28;20296;-77
2023/01/27 12:23:04;;;;;;;;;;;24.00;99.90;;;;;;5003946;28;20292;-77
2023/01/27 12:25:40;;;;;;;;;;;24.10;99.90;;;;;;5004255;28;20443;-74
2023/01/27 12:28:14;;;;;;;;;;;24.10;99.90;;;;;;5003882;28;20608;-78
2023/01/27 12:30:45;;;;;;;;;;;24.00;99.90;;;;;;5004465;28;19928;-78
2023/01/27 12:33:17;;;;;;;;;;;24.00;99.90;;;;;;5004477;28;19949;-67
2023/01/27 12:35:47;;;;;;;;;;;24.10;99.90;;;;;;5002891;28;19913;-78
2023/01/27 12:38:17;;;;;;;;;;;24.10;99.90;;;;;;5004853;28;19917;-75
2023/01/27 12:40:45;;;;;;;;;;;24.00;99.90;;;;;;5004690;28;20631;-78
2023/01/27 12:43:13;;;;;;;;;;;24.00;99.90;;;;;;5004446;28;19921;-77
2023/01/27 12:45:42;;;;;;;;;;;24.00;99.90;;;;;;5011752;28;20288;-76
2023/01/27 12:48:08;;;;;;;;;;;24.00;99.90;;;;;;5012498;28;20442;-77
2023/01/27 12:50:36;;;;;;;;;;;23.90;99.90;;;;;;5011369;28;19939;-73
2023/01/27 12:53:05;;;;;;;;;;;23.90;99.90;;;;;;5012398;28;19917;-78
2023/01/27 12:55:36;;;;;;;;;;;24.00;99.90;;;;;;5012259;28;19920;-78
2023/01/27 12:58:02;;;;;;;;;;;24.00;99.90;;;;;;5012560;28;19917;-78
2023/01/27 13:00:29;;;;;;;;;;;23.90;99.90;;;;;;5012333;28;19932;-78
2023/01/27 13:03:04;;;;;;;;;;;24.00;99.90;;;;;;5011970;28;20380;-77
2023/01/27 13:05:35;;;;;;;;;;;24.00;99.90;;;;;;5012325;28;19920;-77
2023/01/27 13:08:01;;;;;;;;;;;24.00;99.90;;;;;;5012448;28;19967;-78
2023/01/27 13:10:28;;;;;;;;;;;24.00;99.90;;;;;;5011533;28;19917;-78
2023/01/27 13:12:56;;;;;;;;;;;24.00;99.90;;;;;;5012216;28;19967;-77
2023/01/27 13:15:24;;;;;;;;;;;24.10;99.90;;;;;;5011841;28;19917;-76
2023/01/27 13:17:52;;;;;;;;;;;24.00;99.90;;;;;;5011801;28;19915;-77
2023/01/27 13:20:27;;;;;;;;;;;24.00;99.90;;;;;;5012218;28;19914;-78
2023/01/27 13:23:00;;;;;;;;;;;24.10;99.90;;;;;;5011851;28;19910;-78
2023/01/27 13:25:49;;;;;;;;;;;24.10;99.90;;;;;;5012009;28;19964;-78
2023/01/27 13:28:19;;;;;;;;;;;24.00;99.90;;;;;;5012415;28;19913;-77
2023/01/27 13:30:48;;;;;;;;;;;23.90;99.90;;;;;;5012178;28;20004;-78
2023/01/27 13:33:20;;;;;;;;;;;24.00;99.90;;;;;;5010850;28;20424;-77
2023/01/27 13:35:55;;;;;;;;;;;23.90;99.90;;;;;;5011540;28;20295;-66
2023/01/27 13:38:23;;;;;;;;;;;24.00;99.90;;;;;;5012240;28;19909;-69
2023/01/27 13:40:50;;;;;;;;;;;24.00;99.90;;;;;;5011944;28;19909;-66
2023/01/27 13:43:33;;;;;;;;;;;24.00;99.90;;;;;;5011603;28;19917;-66
2023/01/27 13:46:06;;;;;;;;;;;24.00;99.90;;;;;;5011940;28;20281;-70
2023/01/27 13:48:36;;;;;;;;;;;24.00;99.90;;;;;;5011532;28;19913;-68
2023/01/27 13:51:18;;;;;;;;;;;24.00;99.90;;;;;;5011984;28;19923;-67
2023/01/27 13:53:46;;;;;;;;;;;23.90;99.90;;;;;;5011656;28;20012;-70
2023/01/27 13:56:24;;;;;;;;;;;23.90;99.90;;;;;;5012383;28;20316;-75
2023/01/27 13:59:00;;;;;;;;;;;24.00;99.90;;;;;;5012102;28;19932;-67
2023/01/27 14:01:42;;;;;;;;;;;24.00;99.90;;;;;;5011890;28;19967;-72
2023/01/27 14:04:34;;;;;;;;;;;24.00;99.90;;;;;;5011153;28;19952;-66
2023/01/27 14:07:04;;;;;;;;;;;24.00;99.90;;;;;;4988897;28;19913;-72
2023/01/27 14:09:31;;;;;;;;;;;23.90;99.90;;;;;;5011443;28;19909;-67
2023/01/27 14:11:57;;;;;;;;;;;23.90;99.90;;;;;;5011543;28;19926;-65
2023/01/27 14:14:24;;;;;;;;;;;23.90;99.90;;;;;;5011875;28;20384;-68
2023/01/27 14:16:56;;;;;;;;;;;23.90;99.90;;;;;;5010949;28;19910;-70
2023/01/27 14:19:41;;;;;;;;;;;23.80;99.90;;;;;;5011413;28;19917;-66
2023/01/27 14:22:23;;;;;;;;;;;23.90;99.90;;;;;;5012423;28;19909;-66
2023/01/27 14:24:55;;;;;;;;;;;23.90;99.90;;;;;;5015229;28;19917;-66
2023/01/27 14:27:31;;;;;;;;;;;23.90;99.90;;;;;;5015149;28;19916;-67
2023/01/27 14:29:57;;;;;;;;;;;23.90;99.90;;;;;;5015228;28;19955;-67
2023/01/27 14:32:27;;;;;;;;;;;23.90;99.90;;;;;;5014184;28;19914;-67
2023/01/27 14:35:06;;;;;;;;;;;23.70;99.90;;;;;;5015159;28;19918;-68
2023/01/27 14:37:47;;;;;;;;;;;23.70;99.90;;;;;;5014695;28;19917;-68
2023/01/27 14:40:16;;;;;;;;;;;23.70;99.90;;;;;;5014873;28;19941;-66
2023/01/27 14:43:01;;;;;;;;;;;23.80;99.90;;;;;;5014661;28;20012;-69
2023/01/27 14:45:31;;;;;;;;;;;23.70;99.90;;;;;;5014720;28;19917;-67
2023/01/27 14:48:21;;;;;;;;;;;23.70;99.90;;;;;;5014045;28;19957;-65
2023/01/27 14:50:58;;;;;;;;;;;23.60;99.90;;;;;;5013398;28;19926;-65
2023/01/27 14:53:35;;;;;;;;;;;23.70;99.90;;;;;;5013768;28;20275;-66
2023/01/27 14:56:02;;;;;;;;;;;23.70;99.90;;;;;;5014632;28;19959;-66
2023/01/27 14:58:28;;;;;;;;;;;23.80;99.90;;;;;;5014859;28;20364;-64
2023/01/27 15:00:58;;;;;;;;;;;23.80;99.90;;;;;;5014417;28;20396;-68
2023/01/27 15:03:42;;;;;;;;;;;23.80;99.90;;;;;;5014078;28;20272;-64
2023/01/27 15:06:28;;;;;;;;;;;23.80;99.90;;;;;;5014661;28;20376;-68
2023/01/27 15:09:03;;;;;;;;;;;23.70;99.90;;;;;;5013517;28;19940;-65
2023/01/27 15:11:29;;;;;;;;;;;23.80;99.90;;;;;;5014151;28;19925;-65